Time;durP1;ratioP1;P1;durP2;ratioP2;P2;SDS_P1;SDS_P2;PMS_P1;PMS_P2;Temp;Humidity;BMP_temperature;BMP_pressure;BME280_temperature;BME280_humidity;BME280_pressure;Samples;Min_cycle;Max_cycle;Signal;HPM_P1;HPM_P2
2021/01/30 00:00:16;;;;;;;;;;;;;;;21.21;39.64;99861.84;3067844;28;114100;-82
2021/01/30 00:01:51;;;;;;;;;;;;;;;21.20;39.79;99855.41;3061311;28;115392;-81
2021/01/30 00:03:22;;;;;;;;;;;;;;;21.17;39.68;99855.22;3072849;28;114625;-81
2021/01/30 00:04:54;;;;;;;;;;;;;;;21.18;39.93;99860.53;3086163;28;114434;-82
2021/01/30 00:06:25;;;;;;;;;;;;;;;21.17;39.96;99852.44;3089555;28;115319;-81
2021/01/30 00:07:57;;;;;;;;;;;;;;;21.17;40.03;99863.66;3056807;28;115328;-81
2021/01/30 00:09:28;;;;;;;;;;;;;;;21.17;40.18;99852.44;3060537;28;116123;-83
2021/01/30 00:10:59;;;;;;;;;;;;;;;21.16;39.92;99862.03;3083370;28;115711;-81
2021/01/30 00:12:30;;;;;;;;;;;;;;;21.13;40.05;99849.47;3068767;28;115794;-82
2021/01/30 00:14:01;;;;;;;;;;;;;;;21.12;40.41;99855.44;3084472;28;114639;-82
2021/01/30 00:15:32;;;;;;;;;;;;;;;21.12;40.13;99856.22;3066976;28;117496;-81
2021/01/30 00:17:04;;;;;;;;;;;;;;;21.11;40.46;99854.59;3072184;28;115918;-82
2021/01/30 00:18:36;;;;;;;;;;;;;;;21.11;40.26;99859.38;3076224;28;114600;-82
2021/01/30 00:20:10;;;;;;;;;;;;;;;21.10;40.39;99852.13;3088056;28;115691;-82
2021/01/30 00:21:41;;;;;;;;;;;;;;;21.10;40.41;99854.94;3068793;28;115941;-82
2021/01/30 00:23:13;;;;;;;;;;;;;;;21.08;40.37;99851.63;3068103;28;115633;-82
2021/01/30 00:24:47;;;;;;;;;;;;;;;21.07;40.38;99850.00;3060251;28;116109;-82
2021/01/30 00:26:18;;;;;;;;;;;;;;;21.08;40.53;99846.00;3088942;28;118210;-83
2021/01/30 00:27:49;;;;;;;;;;;;;;;21.07;40.56;99845.22;3057342;28;114204;-82
2021/01/30 00:29:21;;;;;;;;;;;;;;;21.06;40.64;99842.72;3076851;28;113975;-82
2021/01/30 00:30:52;;;;;;;;;;;;;;;21.05;40.87;99841.91;3056686;28;114152;-82
2021/01/30 00:32:24;;;;;;;;;;;;;;;21.06;40.64;99842.72;3072076;28;114256;-81
2021/01/30 00:33:55;;;;;;;;;;;;;;;21.04;40.99;99834.63;3077199;28;115031;-82
2021/01/30 00:35:27;;;;;;;;;;;;;;;21.04;40.82;99833.81;3074984;28;113820;-82
2021/01/30 00:37:05;;;;;;;;;;;;;;;21.03;40.97;99826.56;3074743;28;114045;-82
2021/01/30 00:38:36;;;;;;;;;;;;;;;21.03;41.01;99827.34;3065471;28;113687;-82
2021/01/30 00:40:08;;;;;;;;;;;;;;;21.01;41.30;99829.69;3071493;28;114510;-82
2021/01/30 00:41:39;;;;;;;;;;;;;;;21.01;41.08;99826.88;3055920;28;113953;-82
2021/01/30 00:43:10;;;;;;;;;;;;;;;21.02;41.25;99824.91;3078251;28;114102;-82
2021/01/30 00:44:41;;;;;;;;;;;;;;;21.01;41.15;99824.09;3077522;28;113754;-81
2021/01/30 00:46:12;;;;;;;;;;;;;;;21.01;41.22;99823.25;3085187;28;113865;-82
2021/01/30 00:47:44;;;;;;;;;;;;;;;20.99;41.09;99817.97;3065313;28;114293;-82
2021/01/30 00:49:15;;;;;;;;;;;;;;;20.98;41.13;99821.97;3059490;28;114681;-81
2021/01/30 00:50:47;;;;;;;;;;;;;;;20.99;41.48;99822.75;3080415;28;114157;-82
2021/01/30 00:52:19;;;;;;;;;;;;;;;20.97;41.13;99816.69;3054131;28;116096;-82
2021/01/30 00:53:51;;;;;;;;;;;;;;;20.97;41.26;99816.69;3071651;28;115672;-82
2021/01/30 00:55:22;;;;;;;;;;;;;;;20.96;41.32;99817.84;3063137;28;117102;-82
2021/01/30 00:56:54;;;;;;;;;;;;;;;20.95;41.52;99816.19;3063731;28;116422;-81
2021/01/30 00:58:25;;;;;;;;;;;;;;;20.92;41.59;99814.88;3074340;28;115217;-81
2021/01/30 00:59:56;;;;;;;;;;;;;;;20.92;41.34;99819.69;3087761;28;114487;-82
2021/01/30 01:01:34;;;;;;;;;;;;;;;20.91;41.48;99815.22;3056727;28;116604;-82
2021/01/30 01:03:05;;;;;;;;;;;;;;;20.90;41.45;99816.38;3081675;28;117614;-82
2021/01/30 01:04:37;;;;;;;;;;;;;;;20.90;41.44;99814.38;3056660;28;116520;-81
2021/01/30 01:06:08;;;;;;;;;;;;;;;20.90;41.53;99811.56;3078649;28;115142;-81
2021/01/30 01:07:39;;;;;;;;;;;;;;;20.90;41.50;99817.19;3055283;28;115716;-81
2021/01/30 01:09:10;;;;;;;;;;;;;;;20.88;42.15;99816.72;3076335;28;113992;-81
2021/01/30 01:10:42;;;;;;;;;;;;;;;20.88;41.73;99810.28;3062701;28;117770;-83
2021/01/30 01:12:14;;;;;;;;;;;;;;;20.87;41.81;99806.66;3074038;28;116066;-82
2021/01/30 01:13:45;;;;;;;;;;;;;;;20.85;41.70;99801.38;3068602;28;114887;-82
2021/01/30 01:15:17;;;;;;;;;;;;;;;20.86;41.76;99802.19;3060111;28;115910;-82
2021/01/30 01:16:48;;;;;;;;;;;;;;;20.84;41.91;99798.91;3083018;28;116306;-81
2021/01/30 01:18:20;;;;;;;;;;;;;;;20.84;41.88;99793.31;3055093;28;117670;-81
2021/01/30 01:19:51;;;;;;;;;;;;;;;20.84;42.09;99790.50;3079997;28;116295;-81
2021/01/30 01:21:22;;;;;;;;;;;;;;;20.83;41.90;99795.28;3056384;28;118215;-82
2021/01/30 01:22:53;;;;;;;;;;;;;;;20.83;42.09;99789.66;3072110;28;114969;-81
2021/01/30 01:24:24;;;;;;;;;;;;;;;20.83;42.02;99783.22;3073027;28;118620;-81
2021/01/30 01:25:55;;;;;;;;;;;;;;;20.81;41.96;99779.91;3073113;28;115980;-82
2021/01/30 01:27:27;;;;;;;;;;;;;;;20.82;42.14;99775.97;3077957;28;118567;-82
2021/01/30 01:28:58;;;;;;;;;;;;;;;20.80;42.21;99773.47;3058855;28;114541;-82
2021/01/30 01:30:29;;;;;;;;;;;;;;;20.80;42.25;99778.31;3078014;28;114601;-81
2021/01/30 01:32:01;;;;;;;;;;;;;;;20.79;41.99;99769.06;3087234;28;114670;-82
2021/01/30 01:33:34;;;;;;;;;;;;;;;20.78;42.46;99761.78;3072999;28;114104;-81
2021/01/30 01:35:06;;;;;;;;;;;;;;;20.77;42.67;99756.50;3049898;28;113805;-82
2021/01/30 01:36:37;;;;;;;;;;;;;;;20.77;42.38;99751.72;3059521;28;113984;-83
2021/01/30 01:38:08;;;;;;;;;;;;;;;20.76;42.88;99752.88;3057311;28;113860;-83
2021/01/30 01:39:40;;;;;;;;;;;;;;;20.74;42.86;99746.78;3076580;28;113767;-85
2021/01/30 01:41:11;;;;;;;;;;;;;;;20.76;42.94;99744.44;3056395;28;113859;-82
2021/01/30 01:42:42;;;;;;;;;;;;;;;20.75;43.24;99742.81;3081832;28;114055;-82
2021/01/30 01:44:13;;;;;;;;;;;;;;;20.75;42.99;99739.19;3059548;28;114466;-82
2021/01/30 01:45:51;;;;;;;;;;;;;;;20.76;43.04;99740.81;3061328;28;113940;-82
2021/01/30 01:47:25;;;;;;;;;;;;;;;20.74;42.88;99735.56;3045962;28;114734;-82
2021/01/30 01:48:59;;;;;;;;;;;;;;;20.73;43.18;99738.69;3086893;28;113926;-84
2021/01/30 01:50:35;;;;;;;;;;;;;;;20.72;43.16;99732.25;3062780;28;114044;-82
2021/01/30 01:52:15;;;;;;;;;;;;;;;20.72;43.19;99723.81;3076573;28;114139;-84
2021/01/30 01:53:46;;;;;;;;;;;;;;;20.73;43.12;99721.84;3059871;28;114395;-83
2021/01/30 01:55:19;;;;;;;;;;;;;;;20.72;42.95;99721.03;3073541;28;117226;-83
2021/01/30 01:56:54;;;;;;;;;;;;;;;20.72;43.06;99721.03;3054649;28;115112;-82
2021/01/30 01:58:25;;;;;;;;;;;;;;;20.70;43.56;99723.38;3086563;28;115111;-82
2021/01/30 01:59:56;;;;;;;;;;;;;;;20.70;43.56;99723.38;3067688;28;114030;-83
2021/01/30 02:01:29;;;;;;;;;;;;;;;20.69;43.14;99716.09;3076263;28;114744;-83
2021/01/30 02:03:01;;;;;;;;;;;;;;;20.70;43.30;99714.13;3060368;28;115482;-82
2021/01/30 02:04:33;;;;;;;;;;;;;;;20.70;43.37;99711.31;3081941;28;114158;-82
2021/01/30 02:06:04;;;;;;;;;;;;;;;20.70;43.55;99719.72;3060278;28;114575;-84
2021/01/30 02:07:37;;;;;;;;;;;;;;;20.68;43.49;99725.69;3079480;28;117413;-82
2021/01/30 02:09:09;;;;;;;;;;;;;;;20.66;43.86;99711.19;3076320;28;115493;-83
2021/01/30 02:10:42;;;;;;;;;;;;;;;20.67;43.71;99709.19;3063426;28;114235;-82
2021/01/30 02:12:14;;;;;;;;;;;;;;;20.68;43.73;99716.44;3056063;28;117611;-82
2021/01/30 02:13:48;;;;;;;;;;;;;;;20.66;43.61;99710.34;3072909;28;114357;-83
2021/01/30 02:15:20;;;;;;;;;;;;;;;20.66;43.75;99715.97;3067070;28;115026;-82
2021/01/30 02:16:58;;;;;;;;;;;;;;;20.64;43.81;99702.25;3067662;28;114732;-83
2021/01/30 02:18:30;;;;;;;;;;;;;;;20.66;43.81;99710.34;3064305;28;116154;-83
2021/01/30 02:20:21;;;;;;;;;;;;;;;20.64;43.70;99696.66;3051908;28;117716;-82
2021/01/30 02:21:54;;;;;;;;;;;;;;;20.64;43.75;99707.03;3085109;28;117342;-81
2021/01/30 02:23:25;;;;;;;;;;;;;;;20.65;43.67;99703.91;3052957;28;118700;-81
2021/01/30 02:25:06;;;;;;;;;;;;;;;20.64;43.91;99693.84;3073836;28;115630;-82
2021/01/30 02:26:46;;;;;;;;;;;;;;;20.64;43.55;99684.59;3075465;28;115900;-81
2021/01/30 02:28:26;;;;;;;;;;;;;;;20.62;43.63;99684.94;3056699;28;114809;-82
2021/01/30 02:30:17;;;;;;;;;;;;;;;20.61;44.02;99694.53;3073647;28;116536;-82
2021/01/30 02:31:57;;;;;;;;;;;;;;;20.62;43.90;99681.31;3069738;28;116031;-81
2021/01/30 02:33:28;;;;;;;;;;;;;;;20.62;43.86;99686.94;3053740;28;116355;-80
2021/01/30 02:35:00;;;;;;;;;;;;;;;20.59;43.51;99679.19;3058972;28;115062;-82
2021/01/30 02:36:38;;;;;;;;;;;;;;;20.60;43.61;99683.63;3067328;28;115027;-81
2021/01/30 02:38:11;;;;;;;;;;;;;;;20.59;43.57;99679.19;3079942;28;114784;-81
2021/01/30 02:39:48;;;;;;;;;;;;;;;20.58;43.75;99669.94;3076098;28;115257;-83
2021/01/30 02:41:25;;;;;;;;;;;;;;;20.57;43.68;99665.50;3087087;28;113732;-82
2021/01/30 02:43:01;;;;;;;;;;;;;;;20.57;43.64;99665.50;3057360;28;113781;-82
2021/01/30 02:44:34;;;;;;;;;;;;;;;20.55;43.80;99659.41;3077305;28;114234;-82
2021/01/30 02:46:08;;;;;;;;;;;;;;;20.57;43.77;99659.91;3054737;28;113921;-82
2021/01/30 02:47:42;;;;;;;;;;;;;;;20.57;43.82;99662.69;3046428;28;114166;-82
2021/01/30 02:49:16;;;;;;;;;;;;;;;20.57;43.50;99659.06;3067718;28;113990;-82
2021/01/30 02:50:50;;;;;;;;;;;;;;;20.56;43.41;99661.03;3076336;28;114587;-81
2021/01/30 02:52:23;;;;;;;;;;;;;;;20.54;43.43;99652.13;3054042;28;117433;-82
2021/01/30 02:53:56;;;;;;;;;;;;;;;20.54;43.47;99654.13;3067189;28;114179;-82
2021/01/30 02:55:28;;;;;;;;;;;;;;;20.54;43.49;99654.13;3057803;28;113938;-82
2021/01/30 02:57:02;;;;;;;;;;;;;;;20.53;43.68;99649.69;3074656;28;114083;-82
2021/01/30 03:00:56;;;;;;;;;;;;;;;20.54;43.47;99642.88;3076194;28;113916;-81
2021/01/30 03:02:28;;;;;;;;;;;;;;;20.51;43.46;99636.00;3091010;28;114264;-81
2021/01/30 03:04:01;;;;;;;;;;;;;;;20.51;43.42;99635.16;3059259;28;115453;-81
2021/01/30 03:05:35;;;;;;;;;;;;;;;20.50;43.57;99637.16;3083522;28;114091;-81
2021/01/30 03:07:11;;;;;;;;;;;;;;;20.51;43.39;99619.16;3070454;28;114682;-81
2021/01/30 03:08:50;;;;;;;;;;;;;;;20.48;43.70;99628.25;3062639;28;115354;-81
2021/01/30 03:10:31;;;;;;;;;;;;;;;20.49;43.55;99629.09;3055328;28;115774;-81
2021/01/30 03:12:12;;;;;;;;;;;;;;;20.49;43.62;99621.47;3048956;28;114208;-82
2021/01/30 03:13:48;;;;;;;;;;;;;;;20.47;43.66;99621.00;3083386;28;115102;-82
2021/01/30 03:15:20;;;;;;;;;;;;;;;20.47;43.49;99617.38;3069331;28;113967;-81
2021/01/30 03:16:54;;;;;;;;;;;;;;;20.47;43.89;99612.59;3062653;28;115229;-82
2021/01/30 03:18:29;;;;;;;;;;;;;;;20.45;43.80;99617.69;3070307;28;115104;-81
2021/01/30 03:20:03;;;;;;;;;;;;;;;20.45;43.59;99612.09;3041717;28;117386;-82
2021/01/30 03:21:35;;;;;;;;;;;;;;;20.44;43.52;99602.06;3041826;28;115766;-82
2021/01/30 03:23:06;;;;;;;;;;;;;;;20.44;43.68;99606.84;3072763;28;116254;-82
2021/01/30 03:24:39;;;;;;;;;;;;;;;20.42;43.67;99605.19;3061723;28;116114;-83
2021/01/30 03:26:14;;;;;;;;;;;;;;;20.44;43.88;99596.44;3065651;28;115429;-82
2021/01/30 03:27:47;;;;;;;;;;;;;;;20.42;43.57;99595.94;3083375;28;118180;-82
2021/01/30 03:29:19;;;;;;;;;;;;;;;20.41;43.50;99585.88;3067696;28;115826;-83
2021/01/30 03:30:50;;;;;;;;;;;;;;;20.41;43.81;99588.69;3087179;28;116957;-83
2021/01/30 03:32:21;;;;;;;;;;;;;;;20.40;43.73;99581.41;3082280;28;114500;-82
2021/01/30 03:33:53;;;;;;;;;;;;;;;20.40;43.65;99579.44;3076014;28;113825;-83
2021/01/30 03:35:24;;;;;;;;;;;;;;;20.40;43.71;99578.63;3075899;28;115853;-83
2021/01/30 03:36:56;;;;;;;;;;;;;;;20.40;43.86;99575.81;3088121;28;117864;-83
2021/01/30 03:38:27;;;;;;;;;;;;;;;20.39;43.89;99568.59;3063024;28;115826;-83
2021/01/30 03:39:59;;;;;;;;;;;;;;;20.39;43.70;99566.59;3065838;28;115993;-84
2021/01/30 03:41:30;;;;;;;;;;;;;;;20.38;43.68;99558.53;3054300;28;114864;-83
2021/01/30 03:43:01;;;;;;;;;;;;;;;20.38;43.88;99566.94;3082104;28;115149;-83
2021/01/30 03:44:32;;;;;;;;;;;;;;;20.38;43.72;99553.72;3070559;28;116316;-83
2021/01/30 03:46:03;;;;;;;;;;;;;;;20.36;43.57;99544.81;3076048;28;114631;-83
2021/01/30 03:47:35;;;;;;;;;;;;;;;20.36;43.69;99549.59;3068792;28;113807;-83
2021/01/30 03:49:07;;;;;;;;;;;;;;;20.37;43.57;99552.09;3072120;28;114492;-83
2021/01/30 03:50:38;;;;;;;;;;;;;;;20.36;43.46;99544.00;3067403;28;113722;-83
2021/01/30 03:52:09;;;;;;;;;;;;;;;20.35;43.78;99539.56;3078491;28;113725;-83
2021/01/30 03:53:40;;;;;;;;;;;;;;;20.36;43.76;99541.19;3060010;28;114133;-83
2021/01/30 03:55:12;;;;;;;;;;;;;;;20.33;43.78;99534.28;3073121;28;114939;-83
2021/01/30 03:56:43;;;;;;;;;;;;;;;20.31;43.65;99533.81;3069940;28;114208;-83
2021/01/30 03:58:14;;;;;;;;;;;;;;;20.33;43.67;99537.09;3086558;28;113757;-83
2021/01/30 03:59:45;;;;;;;;;;;;;;;20.31;43.80;99527.38;3058099;28;114072;-83
2021/01/30 04:01:16;;;;;;;;;;;;;;;20.32;43.80;99520.59;3056433;28;114208;-82
2021/01/30 04:02:47;;;;;;;;;;;;;;;20.31;43.57;99524.56;3067910;28;113808;-82
2021/01/30 04:04:19;;;;;;;;;;;;;;;20.30;43.82;99522.94;3066568;28;114059;-82
2021/01/30 04:05:50;;;;;;;;;;;;;;;20.29;43.59;99516.47;3066205;28;114800;-81
2021/01/30 04:07:21;;;;;;;;;;;;;;;20.29;43.47;99512.84;3076964;28;113985;-83
2021/01/30 04:08:52;;;;;;;;;;;;;;;20.29;43.67;99507.25;3064754;28;114294;-82
2021/01/30 04:10:25;;;;;;;;;;;;;;;20.27;43.74;99513.19;3083972;28;114429;-82
2021/01/30 04:11:57;;;;;;;;;;;;;;;20.26;43.90;99507.94;3085007;28;114606;-82
2021/01/30 04:13:28;;;;;;;;;;;;;;;20.27;43.74;99504.75;3094613;28;113980;-82
2021/01/30 04:15:00;;;;;;;;;;;;;;;20.26;43.87;99500.31;3056635;28;114984;-82
2021/01/30 04:16:31;;;;;;;;;;;;;;;20.26;43.68;99502.31;3056870;28;114300;-82
2021/01/30 04:18:03;;;;;;;;;;;;;;;20.26;43.80;99499.53;3086207;28;113944;-82
2021/01/30 04:19:36;;;;;;;;;;;;;;;20.26;43.75;99493.91;3079724;28;115045;-81
2021/01/30 04:21:08;;;;;;;;;;;;;;;20.25;43.96;99487.47;3087061;28;115352;-82
2021/01/30 04:22:39;;;;;;;;;;;;;;;20.25;43.71;99486.66;3062022;28;116253;-81
2021/01/30 04:24:10;;;;;;;;;;;;;;;20.23;43.74;99486.97;3055727;28;115510;-82
2021/01/30 04:25:41;;;;;;;;;;;;;;;20.23;43.99;99481.38;3083478;28;114524;-81
2021/01/30 04:27:14;;;;;;;;;;;;;;;20.23;43.80;99478.56;3068401;28;114386;-82
2021/01/30 04:28:46;;;;;;;;;;;;;;;20.23;43.85;99478.56;3081414;28;114044;-81
2021/01/30 04:30:19;;;;;;;;;;;;;;;20.22;43.82;99473.28;3085025;28;114861;-81
2021/01/30 04:31:54;;;;;;;;;;;;;;;20.21;43.67;99471.69;3066600;28;114313;-81
2021/01/30 04:33:25;;;;;;;;;;;;;;;20.20;43.98;99479.25;3079432;28;116115;-81
2021/01/30 04:34:57;;;;;;;;;;;;;;;20.20;43.69;99472.84;3061962;28;114952;-81
2021/01/30 04:36:28;;;;;;;;;;;;;;;20.20;43.86;99473.66;3059536;28;116101;-82
2021/01/30 04:37:59;;;;;;;;;;;;;;;20.18;44.15;99466.72;3067035;28;115821;-81
2021/01/30 04:39:30;;;;;;;;;;;;;;;20.18;43.74;99464.75;3069965;28;114364;-82
2021/01/30 04:41:06;;;;;;;;;;;;;;;20.17;43.91;99465.91;3082254;28;116024;-80
2021/01/30 04:42:44;;;;;;;;;;;;;;;20.17;43.85;99463.09;3057395;28;115742;-81
2021/01/30 04:44:16;;;;;;;;;;;;;;;20.19;43.76;99471.19;3049338;28;114514;-80
2021/01/30 04:45:57;;;;;;;;;;;;;;;20.16;43.88;99461.47;3060383;28;115779;-81
2021/01/30 04:47:37;;;;;;;;;;;;;;;20.17;43.92;99465.13;3074492;28;115200;-81
2021/01/30 04:49:11;;;;;;;;;;;;;;;20.16;44.01;99467.09;3089166;28;115774;-81
2021/01/30 04:50:48;;;;;;;;;;;;;;;20.16;43.88;99463.47;3066591;28;114612;-81
2021/01/30 04:52:19;;;;;;;;;;;;;;;20.15;44.21;99462.63;3067181;28;116244;-81
2021/01/30 04:54:00;;;;;;;;;;;;;;;20.16;43.91;99469.06;3073336;28;113603;-81
2021/01/30 04:55:32;;;;;;;;;;;;;;;20.14;44.06;99461.00;3054317;28;114097;-81
2021/01/30 04:57:13;;;;;;;;;;;;;;;20.12;44.21;99457.72;3086502;28;114209;-82
2021/01/30 04:58:51;;;;;;;;;;;;;;;20.12;44.23;99466.13;3078966;28;113662;-82
2021/01/30 05:00:30;;;;;;;;;;;;;;;20.13;44.13;99462.16;3077008;28;113937;-82
2021/01/30 05:02:08;;;;;;;;;;;;;;;20.12;44.05;99454.09;3076554;28;114262;-82
2021/01/30 05:03:48;;;;;;;;;;;;;;;20.10;44.19;99460.03;3076203;28;114074;-81
2021/01/30 05:05:20;;;;;;;;;;;;;;;20.10;44.16;99459.22;3077170;28;113762;-81
2021/01/30 05:06:58;;;;;;;;;;;;;;;20.10;43.87;99456.41;3088354;28;113905;-81
2021/01/30 05:08:39;;;;;;;;;;;;;;;20.09;43.88;99452.78;3059589;28;114137;-82
2021/01/30 05:10:20;;;;;;;;;;;;;;;20.09;44.29;99452.78;3070098;28;114061;-82
2021/01/30 05:11:56;;;;;;;;;;;;;;;20.07;44.20;99457.09;3088018;28;114108;-82
2021/01/30 05:13:30;;;;;;;;;;;;;;;20.08;44.19;99453.16;3068816;28;113649;-83
2021/01/30 05:15:11;;;;;;;;;;;;;;;20.08;44.18;99453.16;3077442;28;113563;-82
2021/01/30 05:16:52;;;;;;;;;;;;;;;20.05;44.03;99446.22;3061395;28;115621;-81
2021/01/30 05:18:27;;;;;;;;;;;;;;;20.06;44.15;99438.63;3067619;28;115969;-81
2021/01/30 05:20:02;;;;;;;;;;;;;;;20.06;44.12;99441.44;3075271;28;115743;-82
2021/01/30 05:21:43;;;;;;;;;;;;;;;20.05;44.44;99439.78;3057952;28;115236;-81
2021/01/30 05:23:14;;;;;;;;;;;;;;;20.03;44.25;99433.72;3065403;28;115349;-82
2021/01/30 05:24:45;;;;;;;;;;;;;;;20.02;44.30;99435.69;3075847;28;114085;-81
2021/01/30 05:26:22;;;;;;;;;;;;;;;20.03;44.20;99440.16;3055716;28;113987;-81
2021/01/30 05:28:03;;;;;;;;;;;;;;;20.01;44.48;99430.44;3078159;28;115344;-82
2021/01/30 05:29:43;;;;;;;;;;;;;;;19.98;44.40;99427.16;3063541;28;115220;-82
2021/01/30 05:31:19;;;;;;;;;;;;;;;19.98;44.44;99420.72;3047441;28;114785;-82
2021/01/30 05:33:02;;;;;;;;;;;;;;;19.99;44.39;99422.34;3058059;28;115382;-81
2021/01/30 05:34:37;;;;;;;;;;;;;;;19.97;44.50;99414.28;3051855;28;115415;-82
2021/01/30 05:36:18;;;;;;;;;;;;;;;19.98;44.25;99421.56;3070785;28;115082;-82
2021/01/30 05:37:53;;;;;;;;;;;;;;;19.97;44.15;99414.28;3058756;28;114055;-82
2021/01/30 05:39:29;;;;;;;;;;;;;;;19.95;44.26;99415.78;3070246;28;114757;-82
2021/01/30 05:41:06;;;;;;;;;;;;;;;19.96;44.10;99407.03;3071386;28;115136;-80
2021/01/30 05:42:42;;;;;;;;;;;;;;;19.94;44.28;99405.75;3074653;28;115850;-82
2021/01/30 05:44:18;;;;;;;;;;;;;;;19.94;44.21;99402.97;3070504;28;116059;-81
2021/01/30 05:45:52;;;;;;;;;;;;;;;19.91;44.22;99400.81;3079068;28;114548;-81
2021/01/30 05:47:25;;;;;;;;;;;;;;;19.91;44.43;99398.84;3078852;28;116338;-81
2021/01/30 05:48:57;;;;;;;;;;;;;;;19.91;44.18;99393.22;3086843;28;116011;-82
2021/01/30 05:50:34;;;;;;;;;;;;;;;19.92;44.36;99399.66;3063583;28;115461;-82
2021/01/30 05:52:14;;;;;;;;;;;;;;;19.91;44.29;99392.41;3071837;28;115958;-82
2021/01/30 05:53:45;;;;;;;;;;;;;;;19.89;44.31;99389.97;3062060;28;117022;-81
2021/01/30 05:55:26;;;;;;;;;;;;;;;19.89;44.32;99392.78;3070352;28;116273;-81
2021/01/30 05:56:57;;;;;;;;;;;;;;;19.88;44.58;99393.09;3053974;28;114681;-82
2021/01/30 05:58:30;;;;;;;;;;;;;;;19.87;44.31;99392.28;3067721;28;117607;-81
2021/01/30 06:00:01;;;;;;;;;;;;;;;19.87;44.20;99380.25;3083546;28;116819;-82
2021/01/30 06:01:33;;;;;;;;;;;;;;;19.87;44.54;99385.84;3054002;28;114242;-81
2021/01/30 06:03:07;;;;;;;;;;;;;;;19.86;44.54;99387.00;3076115;28;114118;-81
2021/01/30 06:04:39;;;;;;;;;;;;;;;19.85;44.51;99376.97;3060219;28;113962;-81
2021/01/30 06:06:10;;;;;;;;;;;;;;;19.87;44.42;99383.88;3063585;28;114461;-81
2021/01/30 06:07:41;;;;;;;;;;;;;;;19.84;44.37;99378.97;3084049;28;113924;-81
2021/01/30 06:09:27;;;;;;;;;;;;;;;19.87;44.11;99371.84;3050608;28;114372;-81
2021/01/30 06:11:09;;;;;;;;;;;;;;;19.84;44.52;99381.75;3082240;28;114029;-80
2021/01/30 06:12:40;;;;;;;;;;;;;;;19.84;44.41;99376.16;3077057;28;113877;-80
2021/01/30 06:14:25;;;;;;;;;;;;;;;19.84;44.29;99381.75;3088356;28;113842;-80
2021/01/30 06:15:58;;;;;;;;;;;;;;;19.82;44.39;99375.66;3063883;28;113956;-80
2021/01/30 06:17:30;;;;;;;;;;;;;;;19.81;44.36;99368.41;3067931;28;113804;-81
2021/01/30 06:19:11;;;;;;;;;;;;;;;19.81;44.45;99374.00;3051441;28;113989;-81
2021/01/30 06:20:55;;;;;;;;;;;;;;;19.81;44.44;99374.00;3068887;28;113984;-80
2021/01/30 06:22:26;;;;;;;;;;;;;;;19.81;44.44;99367.59;3076217;28;114671;-80
2021/01/30 06:24:07;;;;;;;;;;;;;;;19.81;44.45;99365.59;3074081;28;114235;-80
2021/01/30 06:25:40;;;;;;;;;;;;;;;19.81;44.61;99368.41;3073130;28;113954;-80
2021/01/30 06:27:18;;;;;;;;;;;;;;;19.78;44.64;99360.69;3063585;28;114028;-79
2021/01/30 06:28:59;;;;;;;;;;;;;;;19.79;44.56;99362.34;3085111;28;115586;-80
2021/01/30 06:30:40;;;;;;;;;;;;;;;19.78;44.46;99360.69;3054262;28;115523;-80
2021/01/30 06:32:21;;;;;;;;;;;;;;;19.78;44.83;99357.91;3069518;28;115224;-80
2021/01/30 06:33:55;;;;;;;;;;;;;;;19.77;44.90;99361.84;3074975;28;115686;-80
2021/01/30 06:35:30;;;;;;;;;;;;;;;19.77;44.80;99358.22;3054954;28;114941;-83
2021/01/30 06:37:06;;;;;;;;;;;;;;;19.75;44.95;99355.78;3062066;28;115046;-80
2021/01/30 06:38:40;;;;;;;;;;;;;;;19.76;44.99;99359.41;3061232;28;116696;-80
2021/01/30 06:40:14;;;;;;;;;;;;;;;19.76;44.86;99351.78;3087056;28;115131;-80
2021/01/30 06:41:51;;;;;;;;;;;;;;;19.77;44.86;99358.22;3078761;28;115555;-80
2021/01/30 06:43:27;;;;;;;;;;;;;;;19.74;44.79;99354.13;3076665;28;115056;-81
2021/01/30 06:45:01;;;;;;;;;;;;;;;19.72;44.86;99356.44;3062762;28;115475;-80
2021/01/30 06:46:32;;;;;;;;;;;;;;;19.73;44.82;99355.28;3088395;28;114931;-80
2021/01/30 06:48:08;;;;;;;;;;;;;;;19.75;44.99;99355.78;3059306;28;115213;-80
2021/01/30 06:49:42;;;;;;;;;;;;;;;19.79;45.04;99359.53;3077906;28;115749;-80
2021/01/30 06:51:23;;;;;;;;;;;;;;;19.84;45.38;99353.72;3054160;28;115578;-80
2021/01/30 06:53:10;;;;;;;;;;;;;;;19.86;45.32;99354.19;3081895;28;115821;-80
2021/01/30 06:54:42;;;;;;;;;;;;;;;19.90;45.95;99357.94;3056703;28;117603;-81
2021/01/30 06:56:14;;;;;;;;;;;;;;;19.92;45.83;99355.63;3068013;28;116434;-80
2021/01/30 06:57:50;;;;;;;;;;;;;;;19.95;46.04;99359.72;3087423;28;115589;-80
2021/01/30 06:59:26;;;;;;;;;;;;;;;19.98;45.84;99354.28;3071403;28;115374;-81
2021/01/30 07:01:07;;;;;;;;;;;;;;;20.04;46.12;99351.22;3055561;28;114443;-84
2021/01/30 07:02:39;;;;;;;;;;;;;;;20.07;45.69;99347.75;3069659;28;115355;-81
2021/01/30 07:04:21;;;;;;;;;;;;;;;20.12;46.03;99353.97;3067702;28;115666;-81
2021/01/30 07:05:59;;;;;;;;;;;;;;;20.16;46.14;99348.50;3062670;28;114992;-82
2021/01/30 07:07:35;;;;;;;;;;;;;;;20.21;46.06;99349.09;3084820;28;115049;-80
2021/01/30 07:09:07;;;;;;;;;;;;;;;20.26;46.12;99351.66;3082693;28;115700;-80
2021/01/30 07:10:51;;;;;;;;;;;;;;;20.31;46.49;99340.25;3083612;28;114393;-81
2021/01/30 07:12:29;;;;;;;;;;;;;;;20.39;46.41;99346.97;3053973;28;114962;-82
2021/01/30 07:14:16;;;;;;;;;;;;;;;20.45;46.01;99345.56;3082064;28;114390;-81
2021/01/30 07:15:57;;;;;;;;;;;;;;;20.50;45.97;99347.31;3054073;28;114186;-80
2021/01/30 07:17:38;;;;;;;;;;;;;;;20.56;45.47;99346.78;3080028;28;113840;-80
2021/01/30 07:19:10;;;;;;;;;;;;;;;20.64;45.32;99347.81;3072467;28;114371;-81
2021/01/30 07:20:51;;;;;;;;;;;;;;;20.69;45.15;99348.44;3073461;28;113787;-81
2021/01/30 07:22:25;;;;;;;;;;;;;;;20.74;45.24;99342.59;3054755;28;114054;-81
2021/01/30 07:24:06;;;;;;;;;;;;;;;20.79;45.09;99342.38;3081205;28;114269;-81
2021/01/30 07:25:47;;;;;;;;;;;;;;;20.84;44.89;99338.50;3077998;28;113719;-81
2021/01/30 07:27:22;;;;;;;;;;;;;;;20.90;44.62;99351.13;3050176;28;114637;-81
2021/01/30 07:28:53;;;;;;;;;;;;;;;20.97;44.89;99350.56;3070524;28;114151;-81
2021/01/30 07:30:37;;;;;;;;;;;;;;;21.01;44.61;99349.50;3085228;28;114594;-81
2021/01/30 07:32:09;;;;;;;;;;;;;;;21.07;44.67;99348.13;3060058;28;114133;-82
2021/01/30 07:33:49;;;;;;;;;;;;;;;21.11;44.32;99353.84;3057953;28;114583;-81
2021/01/30 07:35:30;;;;;;;;;;;;;;;21.17;44.44;99353.28;3071235;28;118137;-83
2021/01/30 07:37:10;;;;;;;;;;;;;;;21.23;44.34;99359.47;3074661;28;115233;-80
2021/01/30 07:38:41;;;;;;;;;;;;;;;21.27;44.23;99357.59;3078852;28;114406;-81
2021/01/30 07:40:17;;;;;;;;;;;;;;;21.31;44.15;99355.72;3081936;28;115519;-81
2021/01/30 07:42:01;;;;;;;;;;;;;;;21.35;43.92;99351.03;3077770;28;115058;-81
2021/01/30 07:43:37;;;;;;;;;;;;;;;21.41;43.58;99360.88;3078513;28;117117;-82
2021/01/30 07:45:14;;;;;;;;;;;;;;;21.45;43.36;99361.81;3063369;28;117509;-81
2021/01/30 07:46:49;;;;;;;;;;;;;;;21.50;43.64;99358.75;3086644;28;116242;-81
2021/01/30 07:48:30;;;;;;;;;;;;;;;21.56;43.41;99368.59;3085682;28;116027;-80
2021/01/30 07:50:02;;;;;;;;;;;;;;;21.59;43.38;99362.25;3068728;28;113938;-81
2021/01/30 07:51:38;;;;;;;;;;;;;;;21.62;43.64;99361.53;3061486;28;115041;-81
2021/01/30 07:53:12;;;;;;;;;;;;;;;21.66;43.39;99350.41;3087530;28;114361;-82
2021/01/30 07:54:47;;;;;;;;;;;;;;;21.71;43.20;99353.00;3102324;28;116466;-81
2021/01/30 07:56:18;;;;;;;;;;;;;;;21.73;42.97;99342.19;3068989;28;114718;-81
2021/01/30 07:57:56;;;;;;;;;;;;;;;21.78;43.04;99349.56;3085742;28;114566;-81
2021/01/30 07:59:40;;;;;;;;;;;;;;;21.82;42.92;99344.84;3048784;28;114677;-81
2021/01/30 08:01:12;;;;;;;;;;;;;;;21.85;43.15;99349.78;3083842;28;117539;-81
2021/01/30 08:02:44;;;;;;;;;;;;;;;21.89;42.70;99345.09;3057137;28;116133;-82
2021/01/30 08:04:25;;;;;;;;;;;;;;;21.92;42.83;99350.81;3074199;28;116826;-81
2021/01/30 08:05:57;;;;;;;;;;;;;;;21.97;42.75;99346.94;3078715;28;115922;-82